sensor_id;sensor_type;location;lat;lon;timestamp;temperature;humidity
2056;DHT22;1033;52.560;13.374;2022-08-18T00:01:13;23.10;99.70
2056;DHT22;1033;52.560;13.374;2022-08-18T00:03:45;23.10;99.70
2056;DHT22;1033;52.560;13.374;2022-08-18T00:06:25;23.10;99.90
2056;DHT22;1033;52.560;13.374;2022-08-18T00:08:57;23.00;99.90
2056;DHT22;1033;52.560;13.374;2022-08-18T00:11:28;22.90;99.90
2056;DHT22;1033;52.560;13.374;2022-08-18T00:14:10;22.90;99.90
2056;DHT22;1033;52.560;13.374;2022-08-18T00:16:52;22.90;99.90
2056;DHT22;1033;52.560;13.374;2022-08-18T00:19:22;23.00;99.90
2056;DHT22;1033;52.560;13.374;2022-08-18T00:22:16;23.00;99.90
2056;DHT22;1033;52.560;13.374;2022-08-18T00:24:48;23.10;99.90
2056;DHT22;1033;52.560;13.374;2022-08-18T00:27:20;23.10;99.90
2056;DHT22;1033;52.560;13.374;2022-08-18T00:29:56;23.10;99.90
2056;DHT22;1033;52.560;13.374;2022-08-18T00:32:31;23.10;99.60
2056;DHT22;1033;52.560;13.374;2022-08-18T00:35:05;23.10;99.60
2056;DHT22;1033;52.560;13.374;2022-08-18T00:37:35;23.10;99.40
2056;DHT22;1033;52.560;13.374;2022-08-18T00:40:06;23.10;99.10
2056;DHT22;1033;52.560;13.374;2022-08-18T00:42:42;23.00;99.40
2056;DHT22;1033;52.560;13.374;2022-08-18T00:45:17;22.90;99.80
2056;DHT22;1033;52.560;13.374;2022-08-18T00:47:50;22.90;99.70
2056;DHT22;1033;52.560;13.374;2022-08-18T00:50:22;22.90;99.40
2056;DHT22;1033;52.560;13.374;2022-08-18T00:52:57;22.90;99.80
2056;DHT22;1033;52.560;13.374;2022-08-18T00:55:31;22.90;99.60
2056;DHT22;1033;52.560;13.374;2022-08-18T00:58:05;22.90;99.80
2056;DHT22;1033;52.560;13.374;2022-08-18T01:00:37;22.90;99.60
2056;DHT22;1033;52.560;13.374;2022-08-18T01:03:10;22.80;99.50
2056;DHT22;1033;52.560;13.374;2022-08-18T01:05:55;22.80;99.80
2056;DHT22;1033;52.560;13.374;2022-08-18T01:08:29;22.70;99.90
2056;DHT22;1033;52.560;13.374;2022-08-18T01:11:00;22.70;99.90
2056;DHT22;1033;52.560;13.374;2022-08-18T01:13:31;22.70;99.90
2056;DHT22;1033;52.560;13.374;2022-08-18T01:16:01;22.60;99.90
2056;DHT22;1033;52.560;13.374;2022-08-18T01:18:52;22.60;99.90
2056;DHT22;1033;52.560;13.374;2022-08-18T01:21:42;22.60;99.90
2056;DHT22;1033;52.560;13.374;2022-08-18T01:24:22;22.50;99.90
2056;DHT22;1033;52.560;13.374;2022-08-18T01:27:15;22.40;99.90
2056;DHT22;1033;52.560;13.374;2022-08-18T01:29:45;22.40;99.90
2056;DHT22;1033;52.560;13.374;2022-08-18T01:32:18;22.40;99.90
2056;DHT22;1033;52.560;13.374;2022-08-18T01:34:50;22.30;99.90
2056;DHT22;1033;52.560;13.374;2022-08-18T01:37:22;22.20;99.90
2056;DHT22;1033;52.560;13.374;2022-08-18T01:39:53;22.20;99.90
2056;DHT22;1033;52.560;13.374;2022-08-18T01:42:42;22.20;99.90
2056;DHT22;1033;52.560;13.374;2022-08-18T01:45:13;22.30;99.90
2056;DHT22;1033;52.560;13.374;2022-08-18T01:47:44;22.30;99.90
2056;DHT22;1033;52.560;13.374;2022-08-18T01:50:15;22.20;99.90
2056;DHT22;1033;52.560;13.374;2022-08-18T01:52:45;22.20;99.90
2056;DHT22;1033;52.560;13.374;2022-08-18T01:55:17;22.20;99.90
2056;DHT22;1033;52.560;13.374;2022-08-18T01:57:46;22.20;99.90
2056;DHT22;1033;52.560;13.374;2022-08-18T02:00:17;22.10;99.90
2056;DHT22;1033;52.560;13.374;2022-08-18T02:02:47;22.10;99.90
2056;DHT22;1033;52.560;13.374;2022-08-18T02:05:32;22.10;99.90
2056;DHT22;1033;52.560;13.374;2022-08-18T02:08:05;22.00;99.90
2056;DHT22;1033;52.560;13.374;2022-08-18T02:10:36;22.00;99.90
2056;DHT22;1033;52.560;13.374;2022-08-18T02:13:06;22.00;99.90
2056;DHT22;1033;52.560;13.374;2022-08-18T02:15:35;22.00;99.90
2056;DHT22;1033;52.560;13.374;2022-08-18T02:18:13;22.00;99.90
2056;DHT22;1033;52.560;13.374;2022-08-18T02:21:06;22.10;99.90
2056;DHT22;1033;52.560;13.374;2022-08-18T02:23:37;22.00;99.90
2056;DHT22;1033;52.560;13.374;2022-08-18T02:26:21;22.00;99.90
2056;DHT22;1033;52.560;13.374;2022-08-18T02:28:50;21.90;99.90
2056;DHT22;1033;52.560;13.374;2022-08-18T02:31:22;21.90;99.90
2056;DHT22;1033;52.560;13.374;2022-08-18T02:33:53;21.90;99.90
2056;DHT22;1033;52.560;13.374;2022-08-18T02:36:23;21.90;99.90
2056;DHT22;1033;52.560;13.374;2022-08-18T02:38:52;21.90;99.90
2056;DHT22;1033;52.560;13.374;2022-08-18T02:41:28;21.80;99.90
2056;DHT22;1033;52.560;13.374;2022-08-18T02:43:57;21.70;99.90
2056;DHT22;1033;52.560;13.374;2022-08-18T02:46:27;21.60;99.90
2056;DHT22;1033;52.560;13.374;2022-08-18T02:48:58;21.60;99.90
2056;DHT22;1033;52.560;13.374;2022-08-18T02:51:27;21.60;99.90
2056;DHT22;1033;52.560;13.374;2022-08-18T02:53:57;21.60;99.90
2056;DHT22;1033;52.560;13.374;2022-08-18T02:56:29;21.60;99.90
2056;DHT22;1033;52.560;13.374;2022-08-18T02:59:10;21.50;99.90
2056;DHT22;1033;52.560;13.374;2022-08-18T03:01:44;21.50;99.90
2056;DHT22;1033;52.560;13.374;2022-08-18T03:04:18;21.40;99.90
2056;DHT22;1033;52.560;13.374;2022-08-18T03:06:56;21.40;99.90
2056;DHT22;1033;52.560;13.374;2022-08-18T03:09:29;21.40;99.90
2056;DHT22;1033;52.560;13.374;2022-08-18T03:12:01;21.30;99.90
2056;DHT22;1033;52.560;13.374;2022-08-18T03:14:31;21.30;99.90
2056;DHT22;1033;52.560;13.374;2022-08-18T03:17:04;21.30;99.90
2056;DHT22;1033;52.560;13.374;2022-08-18T03:19:35;21.20;99.90
2056;DHT22;1033;52.560;13.374;2022-08-18T03:22:07;21.20;99.90
2056;DHT22;1033;52.560;13.374;2022-08-18T03:24:55;21.20;99.90
2056;DHT22;1033;52.560;13.374;2022-08-18T03:27:26;21.20;99.90
2056;DHT22;1033;52.560;13.374;2022-08-18T03:29:55;21.30;99.90
2056;DHT22;1033;52.560;13.374;2022-08-18T03:32:25;21.30;99.90
2056;DHT22;1033;52.560;13.374;2022-08-18T03:34:54;21.40;99.90
2056;DHT22;1033;52.560;13.374;2022-08-18T03:37:23;21.50;99.90
2056;DHT22;1033;52.560;13.374;2022-08-18T03:39:52;21.60;99.90
2056;DHT22;1033;52.560;13.374;2022-08-18T03:42:21;21.60;99.90
2056;DHT22;1033;52.560;13.374;2022-08-18T03:44:52;21.60;99.90
2056;DHT22;1033;52.560;13.374;2022-08-18T03:47:21;21.60;99.90
2056;DHT22;1033;52.560;13.374;2022-08-18T03:49:50;21.50;99.90
2056;DHT22;1033;52.560;13.374;2022-08-18T03:52:20;21.60;99.90
2056;DHT22;1033;52.560;13.374;2022-08-18T03:54:49;21.60;99.90
2056;DHT22;1033;52.560;13.374;2022-08-18T03:57:19;21.60;99.90
2056;DHT22;1033;52.560;13.374;2022-08-18T03:59:48;21.70;99.90
2056;DHT22;1033;52.560;13.374;2022-08-18T04:02:18;21.70;99.90
2056;DHT22;1033;52.560;13.374;2022-08-18T04:04:47;21.70;98.20
2056;DHT22;1033;52.560;13.374;2022-08-18T04:07:17;21.70;99.30
2056;DHT22;1033;52.560;13.374;2022-08-18T04:09:46;21.70;99.30
2056;DHT22;1033;52.560;13.374;2022-08-18T04:12:15;21.70;99.50
2056;DHT22;1033;52.560;13.374;2022-08-18T04:14:47;21.80;99.00
2056;DHT22;1033;52.560;13.374;2022-08-18T04:17:19;21.80;98.00
2056;DHT22;1033;52.560;13.374;2022-08-18T04:19:52;21.80;98.20
2056;DHT22;1033;52.560;13.374;2022-08-18T04:22:24;21.90;97.40
2056;DHT22;1033;52.560;13.374;2022-08-18T04:24:53;22.00;97.00
2056;DHT22;1033;52.560;13.374;2022-08-18T04:27:24;22.10;95.40
2056;DHT22;1033;52.560;13.374;2022-08-18T04:29:53;22.10;94.50
2056;DHT22;1033;52.560;13.374;2022-08-18T04:32:25;22.20;94.90
2056;DHT22;1033;52.560;13.374;2022-08-18T04:34:56;22.20;94.70
2056;DHT22;1033;52.560;13.374;2022-08-18T04:37:29;22.40;92.40
2056;DHT22;1033;52.560;13.374;2022-08-18T04:40:06;22.50;90.80
2056;DHT22;1033;52.560;13.374;2022-08-18T04:42:38;22.60;90.40
2056;DHT22;1033;52.560;13.374;2022-08-18T04:45:10;22.60;89.60
2056;DHT22;1033;52.560;13.374;2022-08-18T04:47:41;22.70;86.80
2056;DHT22;1033;52.560;13.374;2022-08-18T04:50:11;22.70;87.00
2056;DHT22;1033;52.560;13.374;2022-08-18T04:52:42;22.80;87.00
2056;DHT22;1033;52.560;13.374;2022-08-18T04:55:28;22.90;86.50
2056;DHT22;1033;52.560;13.374;2022-08-18T04:57:57;23.00;83.10
2056;DHT22;1033;52.560;13.374;2022-08-18T05:00:27;23.10;83.50
2056;DHT22;1033;52.560;13.374;2022-08-18T05:02:57;23.30;78.00
2056;DHT22;1033;52.560;13.374;2022-08-18T05:05:26;23.40;75.20
2056;DHT22;1033;52.560;13.374;2022-08-18T05:07:56;23.60;71.40
2056;DHT22;1033;52.560;13.374;2022-08-18T05:10:25;23.90;68.20
2056;DHT22;1033;52.560;13.374;2022-08-18T05:12:54;24.10;63.60
2056;DHT22;1033;52.560;13.374;2022-08-18T05:15:23;24.30;58.00
2056;DHT22;1033;52.560;13.374;2022-08-18T05:17:52;24.30;53.40
2056;DHT22;1033;52.560;13.374;2022-08-18T05:20:26;24.30;56.20
2056;DHT22;1033;52.560;13.374;2022-08-18T05:22:55;24.30;54.70
2056;DHT22;1033;52.560;13.374;2022-08-18T05:25:25;24.20;55.20
2056;DHT22;1033;52.560;13.374;2022-08-18T05:27:55;24.20;51.90
2056;DHT22;1033;52.560;13.374;2022-08-18T05:30:24;24.10;51.60
2056;DHT22;1033;52.560;13.374;2022-08-18T05:32:53;24.10;54.50
2056;DHT22;1033;52.560;13.374;2022-08-18T05:35:28;24.10;54.40
2056;DHT22;1033;52.560;13.374;2022-08-18T05:38:36;24.10;53.00
2056;DHT22;1033;52.560;13.374;2022-08-18T05:41:19;24.10;51.30
2056;DHT22;1033;52.560;13.374;2022-08-18T05:43:52;24.20;51.00
2056;DHT22;1033;52.560;13.374;2022-08-18T05:46:29;24.20;49.30
2056;DHT22;1033;52.560;13.374;2022-08-18T05:49:04;24.30;48.80
2056;DHT22;1033;52.560;13.374;2022-08-18T05:51:40;24.40;47.30
2056;DHT22;1033;52.560;13.374;2022-08-18T05:54:12;24.50;47.20
2056;DHT22;1033;52.560;13.374;2022-08-18T05:57:02;24.60;45.50
2056;DHT22;1033;52.560;13.374;2022-08-18T05:59:38;24.60;45.40
2056;DHT22;1033;52.560;13.374;2022-08-18T06:02:14;24.70;45.90
2056;DHT22;1033;52.560;13.374;2022-08-18T06:04:54;24.60;47.70
2056;DHT22;1033;52.560;13.374;2022-08-18T06:07:34;24.60;51.20
2056;DHT22;1033;52.560;13.374;2022-08-18T06:10:09;24.70;51.60
2056;DHT22;1033;52.560;13.374;2022-08-18T06:12:42;24.70;51.60
2056;DHT22;1033;52.560;13.374;2022-08-18T06:15:34;24.70;47.90
2056;DHT22;1033;52.560;13.374;2022-08-18T06:18:33;24.60;52.90
2056;DHT22;1033;52.560;13.374;2022-08-18T06:21:31;24.80;52.40
2056;DHT22;1033;52.560;13.374;2022-08-18T06:24:18;25.10;50.30
2056;DHT22;1033;52.560;13.374;2022-08-18T06:27:01;25.10;49.40
2056;DHT22;1033;52.560;13.374;2022-08-18T06:29:57;25.30;46.60
2056;DHT22;1033;52.560;13.374;2022-08-18T06:32:46;25.30;45.30
2056;DHT22;1033;52.560;13.374;2022-08-18T06:35:35;25.40;43.50
2056;DHT22;1033;52.560;13.374;2022-08-18T06:38:23;25.50;43.40
2056;DHT22;1033;52.560;13.374;2022-08-18T06:41:14;25.40;42.50
2056;DHT22;1033;52.560;13.374;2022-08-18T06:44:06;25.60;41.70
2056;DHT22;1033;52.560;13.374;2022-08-18T06:46:41;25.60;42.30
2056;DHT22;1033;52.560;13.374;2022-08-18T06:49:23;25.60;40.80
2056;DHT22;1033;52.560;13.374;2022-08-18T06:52:27;25.60;40.70
2056;DHT22;1033;52.560;13.374;2022-08-18T06:55:00;25.60;41.50
2056;DHT22;1033;52.560;13.374;2022-08-18T06:57:36;25.70;38.70
2056;DHT22;1033;52.560;13.374;2022-08-18T07:00:09;25.60;38.00
2056;DHT22;1033;52.560;13.374;2022-08-18T07:02:53;25.80;38.50
2056;DHT22;1033;52.560;13.374;2022-08-18T07:05:27;25.90;37.70
2056;DHT22;1033;52.560;13.374;2022-08-18T07:08:16;25.80;37.40
2056;DHT22;1033;52.560;13.374;2022-08-18T07:10:52;25.80;38.90
2056;DHT22;1033;52.560;13.374;2022-08-18T07:13:26;25.90;38.10
2056;DHT22;1033;52.560;13.374;2022-08-18T07:16:15;26.10;37.50
2056;DHT22;1033;52.560;13.374;2022-08-18T07:19:06;26.10;36.20
2056;DHT22;1033;52.560;13.374;2022-08-18T07:21:37;26.20;35.80
2056;DHT22;1033;52.560;13.374;2022-08-18T07:24:11;26.30;35.90
2056;DHT22;1033;52.560;13.374;2022-08-18T07:26:59;26.30;36.70
2056;DHT22;1033;52.560;13.374;2022-08-18T07:29:33;26.40;34.00
2056;DHT22;1033;52.560;13.374;2022-08-18T07:32:09;26.40;32.90
2056;DHT22;1033;52.560;13.374;2022-08-18T07:34:51;26.40;32.40
2056;DHT22;1033;52.560;13.374;2022-08-18T07:37:28;26.30;33.00
2056;DHT22;1033;52.560;13.374;2022-08-18T07:40:03;26.50;32.10
2056;DHT22;1033;52.560;13.374;2022-08-18T07:42:48;26.60;31.30
2056;DHT22;1033;52.560;13.374;2022-08-18T07:45:36;26.70;29.60
2056;DHT22;1033;52.560;13.374;2022-08-18T07:48:11;26.70;30.50
2056;DHT22;1033;52.560;13.374;2022-08-18T07:51:11;26.80;30.20
2056;DHT22;1033;52.560;13.374;2022-08-18T07:54:03;26.80;29.80
2056;DHT22;1033;52.560;13.374;2022-08-18T07:57:04;27.10;28.40
2056;DHT22;1033;52.560;13.374;2022-08-18T07:59:41;27.40;27.10
2056;DHT22;1033;52.560;13.374;2022-08-18T08:02:27;27.50;25.80
2056;DHT22;1033;52.560;13.374;2022-08-18T08:05:09;27.60;25.30
2056;DHT22;1033;52.560;13.374;2022-08-18T08:07:52;27.80;24.20
2056;DHT22;1033;52.560;13.374;2022-08-18T08:10:31;27.80;23.40
2056;DHT22;1033;52.560;13.374;2022-08-18T08:13:15;27.80;23.80
2056;DHT22;1033;52.560;13.374;2022-08-18T08:16:15;27.80;24.80
2056;DHT22;1033;52.560;13.374;2022-08-18T08:19:07;28.00;23.80
2056;DHT22;1033;52.560;13.374;2022-08-18T08:22:15;28.10;23.30
2056;DHT22;1033;52.560;13.374;2022-08-18T08:24:57;28.20;22.20
2056;DHT22;1033;52.560;13.374;2022-08-18T08:28:03;28.30;22.00
2056;DHT22;1033;52.560;13.374;2022-08-18T08:30:44;28.10;22.30
2056;DHT22;1033;52.560;13.374;2022-08-18T08:33:24;28.00;22.20
2056;DHT22;1033;52.560;13.374;2022-08-18T08:36:05;28.10;22.10
2056;DHT22;1033;52.560;13.374;2022-08-18T08:38:43;28.10;22.10
2056;DHT22;1033;52.560;13.374;2022-08-18T08:41:19;28.00;22.60
2056;DHT22;1033;52.560;13.374;2022-08-18T08:43:59;28.20;22.20
2056;DHT22;1033;52.560;13.374;2022-08-18T08:46:41;28.30;21.70
2056;DHT22;1033;52.560;13.374;2022-08-18T08:49:29;28.30;21.90
2056;DHT22;1033;52.560;13.374;2022-08-18T08:52:10;28.40;21.40
2056;DHT22;1033;52.560;13.374;2022-08-18T08:54:48;28.60;21.80
2056;DHT22;1033;52.560;13.374;2022-08-18T08:57:26;28.70;20.00
2056;DHT22;1033;52.560;13.374;2022-08-18T09:00:05;28.70;20.40
2056;DHT22;1033;52.560;13.374;2022-08-18T09:03:01;28.70;20.30
2056;DHT22;1033;52.560;13.374;2022-08-18T09:05:46;28.90;19.70
2056;DHT22;1033;52.560;13.374;2022-08-18T09:18:14;29.10;18.10
2056;DHT22;1033;52.560;13.374;2022-08-18T09:21:03;28.90;17.80
2056;DHT22;1033;52.560;13.374;2022-08-18T09:23:47;28.90;17.90
2056;DHT22;1033;52.560;13.374;2022-08-18T09:26:38;28.70;18.10
2056;DHT22;1033;52.560;13.374;2022-08-18T09:29:17;28.80;17.50
2056;DHT22;1033;52.560;13.374;2022-08-18T09:35:13;29.30;14.50
2056;DHT22;1033;52.560;13.374;2022-08-18T09:37:59;29.50;13.80
2056;DHT22;1033;52.560;13.374;2022-08-18T09:40:59;29.80;13.50
2056;DHT22;1033;52.560;13.374;2022-08-18T09:43:57;30.00;12.20
2056;DHT22;1033;52.560;13.374;2022-08-18T09:46:58;30.00;11.20
2056;DHT22;1033;52.560;13.374;2022-08-18T09:49:46;30.10;10.30
2056;DHT22;1033;52.560;13.374;2022-08-18T09:52:55;30.00;9.80
2056;DHT22;1033;52.560;13.374;2022-08-18T09:55:54;29.80;10.30
2056;DHT22;1033;52.560;13.374;2022-08-18T09:58:58;30.40;9.80
2056;DHT22;1033;52.560;13.374;2022-08-18T10:01:40;30.70;9.70
2056;DHT22;1033;52.560;13.374;2022-08-18T10:04:29;31.00;8.90
2056;DHT22;1033;52.560;13.374;2022-08-18T10:07:19;31.00;8.10
2056;DHT22;1033;52.560;13.374;2022-08-18T10:10:12;31.20;7.50
2056;DHT22;1033;52.560;13.374;2022-08-18T10:13:17;31.20;6.80
2056;DHT22;1033;52.560;13.374;2022-08-18T10:16:05;31.20;7.00
2056;DHT22;1033;52.560;13.374;2022-08-18T10:18:59;31.30;7.10
2056;DHT22;1033;52.560;13.374;2022-08-18T10:22:09;31.50;5.30
2056;DHT22;1033;52.560;13.374;2022-08-18T10:24:45;31.20;4.60
2056;DHT22;1033;52.560;13.374;2022-08-18T10:27:43;31.30;4.30
2056;DHT22;1033;52.560;13.374;2022-08-18T10:34:03;31.90;3.30
2056;DHT22;1033;52.560;13.374;2022-08-18T10:36:52;32.00;2.30
2056;DHT22;1033;52.560;13.374;2022-08-18T10:39:42;31.70;1.80
2056;DHT22;1033;52.560;13.374;2022-08-18T10:42:21;31.50;1.20
2056;DHT22;1033;52.560;13.374;2022-08-18T10:45:19;31.20;1.30
2056;DHT22;1033;52.560;13.374;2022-08-18T10:48:07;31.10;1.60
2056;DHT22;1033;52.560;13.374;2022-08-18T10:50:49;31.10;1.00
2056;DHT22;1033;52.560;13.374;2022-08-18T10:56:32;31.60;1.00
2056;DHT22;1033;52.560;13.374;2022-08-18T10:59:17;32.10;1.00
2056;DHT22;1033;52.560;13.374;2022-08-18T11:02:04;32.20;1.00
2056;DHT22;1033;52.560;13.374;2022-08-18T11:04:44;32.40;1.00
2056;DHT22;1033;52.560;13.374;2022-08-18T11:07:35;32.60;1.00
2056;DHT22;1033;52.560;13.374;2022-08-18T11:10:16;32.60;1.00
2056;DHT22;1033;52.560;13.374;2022-08-18T11:13:11;32.60;1.00
2056;DHT22;1033;52.560;13.374;2022-08-18T11:16:02;32.70;1.00
2056;DHT22;1033;52.560;13.374;2022-08-18T11:18:44;32.70;1.00
2056;DHT22;1033;52.560;13.374;2022-08-18T11:21:32;32.50;1.00
2056;DHT22;1033;52.560;13.374;2022-08-18T11:24:12;32.60;1.00
2056;DHT22;1033;52.560;13.374;2022-08-18T11:26:47;32.40;1.00
2056;DHT22;1033;52.560;13.374;2022-08-18T11:29:28;32.60;1.00
2056;DHT22;1033;52.560;13.374;2022-08-18T11:32:07;32.80;1.00
2056;DHT22;1033;52.560;13.374;2022-08-18T11:34:46;33.00;1.00
2056;DHT22;1033;52.560;13.374;2022-08-18T11:37:23;33.20;1.00
2056;DHT22;1033;52.560;13.374;2022-08-18T11:40:29;33.50;1.00
2056;DHT22;1033;52.560;13.374;2022-08-18T11:43:31;33.60;1.00
2056;DHT22;1033;52.560;13.374;2022-08-18T11:46:20;33.80;1.00
2056;DHT22;1033;52.560;13.374;2022-08-18T11:48:59;33.70;1.00
2056;DHT22;1033;52.560;13.374;2022-08-18T11:51:54;34.00;1.00
2056;DHT22;1033;52.560;13.374;2022-08-18T11:54:38;33.90;1.00
2056;DHT22;1033;52.560;13.374;2022-08-18T11:57:39;33.70;1.00
2056;DHT22;1033;52.560;13.374;2022-08-18T12:00:54;33.60;1.00
2056;DHT22;1033;52.560;13.374;2022-08-18T12:03:38;33.80;1.00
2056;DHT22;1033;52.560;13.374;2022-08-18T12:06:19;33.90;1.00
2056;DHT22;1033;52.560;13.374;2022-08-18T12:08:58;33.90;1.00
2056;DHT22;1033;52.560;13.374;2022-08-18T12:11:31;33.70;1.00
2056;DHT22;1033;52.560;13.374;2022-08-18T12:14:16;33.50;1.00
2056;DHT22;1033;52.560;13.374;2022-08-18T12:17:00;33.40;1.00
2056;DHT22;1033;52.560;13.374;2022-08-18T12:19:34;33.50;1.00
2056;DHT22;1033;52.560;13.374;2022-08-18T12:22:14;33.30;1.00
2056;DHT22;1033;52.560;13.374;2022-08-18T12:24:45;33.30;1.00
2056;DHT22;1033;52.560;13.374;2022-08-18T12:27:17;33.30;1.00
2056;DHT22;1033;52.560;13.374;2022-08-18T12:29:49;33.20;1.00
2056;DHT22;1033;52.560;13.374;2022-08-18T12:32:19;33.20;1.00
2056;DHT22;1033;52.560;13.374;2022-08-18T12:35:12;33.20;1.00
2056;DHT22;1033;52.560;13.374;2022-08-18T12:37:43;33.50;1.00
2056;DHT22;1033;52.560;13.374;2022-08-18T12:40:32;33.90;1.00
2056;DHT22;1033;52.560;13.374;2022-08-18T12:43:02;34.10;1.00
2056;DHT22;1033;52.560;13.374;2022-08-18T12:45:32;34.20;1.00
2056;DHT22;1033;52.560;13.374;2022-08-18T12:48:04;34.30;1.00
2056;DHT22;1033;52.560;13.374;2022-08-18T12:50:36;34.30;1.00
2056;DHT22;1033;52.560;13.374;2022-08-18T12:53:21;34.20;1.00
2056;DHT22;1033;52.560;13.374;2022-08-18T12:56:05;34.30;1.00
2056;DHT22;1033;52.560;13.374;2022-08-18T12:58:37;34.40;1.00
2056;DHT22;1033;52.560;13.374;2022-08-18T13:01:07;34.40;1.00
2056;DHT22;1033;52.560;13.374;2022-08-18T13:03:36;34.20;1.00
2056;DHT22;1033;52.560;13.374;2022-08-18T13:06:10;33.90;1.00
2056;DHT22;1033;52.560;13.374;2022-08-18T13:08:42;33.90;1.00
2056;DHT22;1033;52.560;13.374;2022-08-18T13:11:16;34.20;1.00
2056;DHT22;1033;52.560;13.374;2022-08-18T13:13:51;34.20;1.00
2056;DHT22;1033;52.560;13.374;2022-08-18T13:16:23;34.10;1.00
2056;DHT22;1033;52.560;13.374;2022-08-18T13:18:57;33.90;1.00
2056;DHT22;1033;52.560;13.374;2022-08-18T13:21:27;33.70;1.00
2056;DHT22;1033;52.560;13.374;2022-08-18T13:24:07;33.90;1.00
2056;DHT22;1033;52.560;13.374;2022-08-18T13:26:42;33.80;1.00
2056;DHT22;1033;52.560;13.374;2022-08-18T13:29:12;34.10;1.00
2056;DHT22;1033;52.560;13.374;2022-08-18T13:31:44;34.20;1.00
2056;DHT22;1033;52.560;13.374;2022-08-18T13:34:22;34.10;1.00
2056;DHT22;1033;52.560;13.374;2022-08-18T13:36:54;33.80;1.00
2056;DHT22;1033;52.560;13.374;2022-08-18T13:39:24;33.50;1.00
2056;DHT22;1033;52.560;13.374;2022-08-18T13:42:00;33.40;1.00
2056;DHT22;1033;52.560;13.374;2022-08-18T13:44:51;33.70;1.00
2056;DHT22;1033;52.560;13.374;2022-08-18T13:47:23;33.70;1.00
2056;DHT22;1033;52.560;13.374;2022-08-18T13:49:56;33.70;1.00
2056;DHT22;1033;52.560;13.374;2022-08-18T13:52:28;33.90;1.00
2056;DHT22;1033;52.560;13.374;2022-08-18T13:55:03;33.90;1.00
2056;DHT22;1033;52.560;13.374;2022-08-18T13:57:34;33.70;1.00
2056;DHT22;1033;52.560;13.374;2022-08-18T14:00:06;33.50;1.00
2056;DHT22;1033;52.560;13.374;2022-08-18T14:02:47;33.40;1.00
2056;DHT22;1033;52.560;13.374;2022-08-18T14:05:20;33.30;1.00
2056;DHT22;1033;52.560;13.374;2022-08-18T14:08:10;33.30;1.00
2056;DHT22;1033;52.560;13.374;2022-08-18T14:10:47;33.50;1.00
2056;DHT22;1033;52.560;13.374;2022-08-18T14:13:19;33.50;1.00
2056;DHT22;1033;52.560;13.374;2022-08-18T14:15:52;33.50;1.00
2056;DHT22;1033;52.560;13.374;2022-08-18T14:18:25;33.40;1.00
2056;DHT22;1033;52.560;13.374;2022-08-18T14:20:57;33.50;1.00
2056;DHT22;1033;52.560;13.374;2022-08-18T14:23:50;33.40;1.00
2056;DHT22;1033;52.560;13.374;2022-08-18T14:26:40;33.50;1.00
2056;DHT22;1033;52.560;13.374;2022-08-18T14:29:17;33.60;1.00
2056;DHT22;1033;52.560;13.374;2022-08-18T14:32:07;33.90;1.00
2056;DHT22;1033;52.560;13.374;2022-08-18T14:34:44;33.80;1.00
2056;DHT22;1033;52.560;13.374;2022-08-18T14:37:17;33.80;1.00
2056;DHT22;1033;52.560;13.374;2022-08-18T14:39:49;33.80;1.00
2056;DHT22;1033;52.560;13.374;2022-08-18T14:42:20;34.10;1.00
2056;DHT22;1033;52.560;13.374;2022-08-18T14:45:10;34.10;1.00
2056;DHT22;1033;52.560;13.374;2022-08-18T14:47:57;34.00;1.00
2056;DHT22;1033;52.560;13.374;2022-08-18T14:50:27;33.60;1.00
2056;DHT22;1033;52.560;13.374;2022-08-18T14:52:56;33.10;1.00
2056;DHT22;1033;52.560;13.374;2022-08-18T14:55:27;32.30;1.00
2056;DHT22;1033;52.560;13.374;2022-08-18T14:57:57;32.10;1.00
2056;DHT22;1033;52.560;13.374;2022-08-18T15:00:27;31.90;1.00
2056;DHT22;1033;52.560;13.374;2022-08-18T15:02:56;31.70;1.00
2056;DHT22;1033;52.560;13.374;2022-08-18T15:05:26;31.50;1.00
2056;DHT22;1033;52.560;13.374;2022-08-18T15:08:03;31.20;1.00
2056;DHT22;1033;52.560;13.374;2022-08-18T15:10:34;30.90;1.00
2056;DHT22;1033;52.560;13.374;2022-08-18T15:13:03;30.50;1.00
2056;DHT22;1033;52.560;13.374;2022-08-18T15:15:33;30.40;1.00
2056;DHT22;1033;52.560;13.374;2022-08-18T15:18:17;30.40;1.00
2056;DHT22;1033;52.560;13.374;2022-08-18T15:20:49;30.30;1.00
2056;DHT22;1033;52.560;13.374;2022-08-18T15:23:56;30.30;1.00
2056;DHT22;1033;52.560;13.374;2022-08-18T15:26:50;30.10;1.00
2056;DHT22;1033;52.560;13.374;2022-08-18T15:29:26;30.10;1.00
2056;DHT22;1033;52.560;13.374;2022-08-18T15:31:56;30.10;1.00
2056;DHT22;1033;52.560;13.374;2022-08-18T15:34:36;30.00;1.00
2056;DHT22;1033;52.560;13.374;2022-08-18T15:37:18;29.90;1.00
2056;DHT22;1033;52.560;13.374;2022-08-18T15:39:59;29.90;1.00
2056;DHT22;1033;52.560;13.374;2022-08-18T15:42:36;29.80;1.00
2056;DHT22;1033;52.560;13.374;2022-08-18T15:45:13;29.90;1.00
2056;DHT22;1033;52.560;13.374;2022-08-18T15:47:53;30.00;1.00
2056;DHT22;1033;52.560;13.374;2022-08-18T15:50:23;29.90;1.00
2056;DHT22;1033;52.560;13.374;2022-08-18T15:52:54;29.60;1.00
2056;DHT22;1033;52.560;13.374;2022-08-18T15:55:27;29.60;1.00
2056;DHT22;1033;52.560;13.374;2022-08-18T15:58:05;29.60;1.00
2056;DHT22;1033;52.560;13.374;2022-08-18T16:00:40;29.70;1.00
2056;DHT22;1033;52.560;13.374;2022-08-18T16:03:13;29.80;1.00
2056;DHT22;1033;52.560;13.374;2022-08-18T16:05:47;29.80;1.00
2056;DHT22;1033;52.560;13.374;2022-08-18T16:08:20;29.90;1.00
2056;DHT22;1033;52.560;13.374;2022-08-18T16:10:52;30.00;1.00
2056;DHT22;1033;52.560;13.374;2022-08-18T16:13:23;29.80;1.00
2056;DHT22;1033;52.560;13.374;2022-08-18T16:15:55;29.80;1.00
2056;DHT22;1033;52.560;13.374;2022-08-18T16:18:24;29.90;1.00
2056;DHT22;1033;52.560;13.374;2022-08-18T16:21:02;29.80;1.00
2056;DHT22;1033;52.560;13.374;2022-08-18T16:23:38;29.90;1.00
2056;DHT22;1033;52.560;13.374;2022-08-18T16:26:09;29.90;1.00
2056;DHT22;1033;52.560;13.374;2022-08-18T16:28:48;29.80;1.00
2056;DHT22;1033;52.560;13.374;2022-08-18T16:31:20;29.60;1.00
2056;DHT22;1033;52.560;13.374;2022-08-18T16:33:53;29.30;2.00
2056;DHT22;1033;52.560;13.374;2022-08-18T16:36:24;29.30;3.00
2056;DHT22;1033;52.560;13.374;2022-08-18T16:38:54;29.10;3.70
2056;DHT22;1033;52.560;13.374;2022-08-18T16:41:25;28.90;4.30
2056;DHT22;1033;52.560;13.374;2022-08-18T16:43:56;28.70;4.50
2056;DHT22;1033;52.560;13.374;2022-08-18T16:46:26;28.60;4.60
2056;DHT22;1033;52.560;13.374;2022-08-18T16:48:56;28.30;5.10
2056;DHT22;1033;52.560;13.374;2022-08-18T16:51:27;28.10;5.70
2056;DHT22;1033;52.560;13.374;2022-08-18T16:53:56;27.80;6.70
2056;DHT22;1033;52.560;13.374;2022-08-18T16:56:28;27.50;8.20
2056;DHT22;1033;52.560;13.374;2022-08-18T16:59:02;27.20;9.70
2056;DHT22;1033;52.560;13.374;2022-08-18T17:01:49;26.90;12.20
2056;DHT22;1033;52.560;13.374;2022-08-18T17:04:35;26.40;17.60
2056;DHT22;1033;52.560;13.374;2022-08-18T17:07:05;25.80;26.10
2056;DHT22;1033;52.560;13.374;2022-08-18T17:09:35;25.30;43.70
2056;DHT22;1033;52.560;13.374;2022-08-18T17:12:04;24.70;73.60
2056;DHT22;1033;52.560;13.374;2022-08-18T17:14:35;24.30;94.40
2056;DHT22;1033;52.560;13.374;2022-08-18T17:17:05;24.20;99.90
2056;DHT22;1033;52.560;13.374;2022-08-18T17:19:35;24.10;99.90
2056;DHT22;1033;52.560;13.374;2022-08-18T17:22:05;23.90;99.90